Time;durP1;ratioP1;P1;durP2;ratioP2;P2;SDS_P1;SDS_P2;PMS_P1;PMS_P2;Temp;Humidity;BMP_temperature;BMP_pressure;BME280_temperature;BME280_humidity;BME280_pressure;Samples;Min_cycle;Max_cycle;Signal;HPM_P1;HPM_P2
2022/04/15 00:01:51;;;;;;;9.60;6.57;;;17.20;48.60;;;;;;5071153;28;20634;-29
2022/04/15 00:04:16;;;;;;;5.07;3.87;;;17.20;48.40;;;;;;5071558;28;20259;-30
2022/04/15 00:06:42;;;;;;;8.97;6.80;;;17.20;48.50;;;;;;5071584;28;20169;-30
2022/04/15 00:09:08;;;;;;;5.63;4.47;;;17.20;48.30;;;;;;5071492;28;20164;-28
2022/04/15 00:11:33;;;;;;;7.13;4.90;;;17.20;48.10;;;;;;5071191;28;20185;-29
2022/04/15 00:14:00;;;;;;;6.47;4.23;;;17.20;48.00;;;;;;5073590;28;20184;-30
2022/04/15 00:16:26;;;;;;;7.45;5.55;;;17.20;47.80;;;;;;5075157;28;20169;-30
2022/04/15 00:18:52;;;;;;;7.40;4.53;;;17.20;47.90;;;;;;5065183;28;20192;-30
2022/04/15 00:21:17;;;;;;;7.47;5.47;;;17.20;48.10;;;;;;5074025;28;20177;-29
2022/04/15 00:23:44;;;;;;;6.10;5.00;;;17.10;48.40;;;;;;5074734;28;21134;-30
2022/04/15 00:26:10;;;;;;;9.93;4.95;;;17.10;48.30;;;;;;5067057;28;20169;-30
2022/04/15 00:28:35;;;;;;;7.53;4.87;;;17.10;48.70;;;;;;5068030;28;20226;-31
2022/04/15 00:31:01;;;;;;;6.80;6.10;;;17.00;49.50;;;;;;5074657;28;20187;-30
2022/04/15 00:33:27;;;;;;;5.47;4.00;;;16.90;49.80;;;;;;5074909;28;20188;-30
2022/04/15 00:35:52;;;;;;;5.93;5.13;;;17.00;49.30;;;;;;5074945;28;20171;-29
2022/04/15 00:38:18;;;;;;;12.17;6.37;;;17.00;49.10;;;;;;5074928;28;20222;-30
2022/04/15 00:40:44;;;;;;;7.07;4.20;;;17.00;48.80;;;;;;5074576;28;20541;-30
2022/04/15 00:43:10;;;;;;;7.97;5.20;;;17.00;48.70;;;;;;5074586;28;20457;-29
2022/04/15 00:45:36;;;;;;;6.47;4.20;;;17.00;48.80;;;;;;5075005;28;20748;-30
2022/04/15 00:48:02;;;;;;;7.63;5.27;;;17.00;48.80;;;;;;5074660;28;20527;-30
2022/04/15 00:50:29;;;;;;;6.72;4.72;;;17.00;48.80;;;;;;5074467;28;20639;-30
2022/04/15 00:52:58;;;;;;;7.40;5.20;;;17.00;49.60;;;;;;5074514;28;20193;-30
2022/04/15 00:55:25;;;;;;;6.88;5.60;;;16.90;49.10;;;;;;5074643;28;20630;-30
2022/04/15 00:57:59;;;;;;;7.03;5.68;;;16.90;49.10;;;;;;5074496;28;20181;-30
2022/04/15 01:00:27;;;;;;;10.30;6.03;;;16.90;49.10;;;;;;5074305;28;20160;-29
2022/04/15 01:02:56;;;;;;;9.18;5.40;;;16.90;48.90;;;;;;5074220;28;20600;-30
2022/04/15 01:05:21;;;;;;;9.35;6.25;;;16.90;48.70;;;;;;5074347;28;20272;-30
2022/04/15 01:07:52;;;;;;;7.37;4.53;;;16.90;49.10;;;;;;5074349;28;20259;-30
2022/04/15 01:10:20;;;;;;;8.73;5.25;;;16.90;49.60;;;;;;5074274;28;20399;-31
2022/04/15 01:12:54;;;;;;;6.07;4.50;;;16.90;49.10;;;;;;5075221;28;20212;-30
2022/04/15 01:15:25;;;;;;;8.88;5.32;;;16.90;49.20;;;;;;5075609;28;20152;-30
2022/04/15 01:17:51;;;;;;;7.05;5.75;;;16.90;49.00;;;;;;5075666;28;20687;-29
2022/04/15 01:20:17;;;;;;;9.57;6.07;;;16.80;49.00;;;;;;5074007;28;20206;-31
2022/04/15 01:22:44;;;;;;;6.53;5.22;;;16.90;48.90;;;;;;5073862;28;20476;-30
2022/04/15 01:25:17;;;;;;;10.68;5.35;;;16.90;49.00;;;;;;5073414;28;20181;-30
2022/04/15 01:27:45;;;;;;;5.38;3.85;;;16.80;49.50;;;;;;5074016;28;20218;-30
2022/04/15 01:30:15;;;;;;;6.20;4.22;;;16.90;48.90;;;;;;5073808;28;20172;-29
2022/04/15 01:32:41;;;;;;;5.65;5.05;;;16.80;48.90;;;;;;5073599;28;20197;-30
2022/04/15 01:35:08;;;;;;;7.35;5.10;;;16.80;49.10;;;;;;5073890;28;20164;-30
2022/04/15 01:37:36;;;;;;;12.95;4.88;;;16.80;48.70;;;;;;5073736;28;20210;-30
2022/04/15 01:40:07;;;;;;;8.15;6.07;;;16.80;48.50;;;;;;5073713;28;20256;-29
2022/04/15 01:42:33;;;;;;;4.43;3.60;;;16.90;48.70;;;;;;5068476;28;20201;-30
2022/04/15 01:44:59;;;;;;;4.88;4.20;;;16.90;48.80;;;;;;5061798;28;20166;-30
2022/04/15 01:47:25;;;;;;;8.00;5.47;;;16.80;48.80;;;;;;5073423;28;20196;-30
2022/04/15 01:49:50;;;;;;;7.87;4.77;;;16.80;48.90;;;;;;5073467;28;20403;-30
2022/04/15 01:52:17;;;;;;;9.23;5.90;;;16.80;49.40;;;;;;5073144;28;20279;-30
2022/04/15 01:54:42;;;;;;;9.38;5.50;;;16.80;49.10;;;;;;5073438;28;20175;-30
2022/04/15 01:57:08;;;;;;;7.00;4.53;;;16.80;48.90;;;;;;5073464;28;20180;-29
2022/04/15 01:59:34;;;;;;;7.60;5.53;;;16.80;49.50;;;;;;5073329;28;20676;-29
2022/04/15 02:02:00;;;;;;;7.90;4.03;;;16.80;49.40;;;;;;5072880;28;20261;-30
2022/04/15 02:04:26;;;;;;;12.30;5.07;;;16.70;49.40;;;;;;5073270;28;20164;-30
2022/04/15 02:06:52;;;;;;;9.70;4.82;;;16.70;49.10;;;;;;5073115;28;20247;-30
2022/04/15 02:09:19;;;;;;;11.15;5.85;;;16.70;49.10;;;;;;5073129;28;20175;-30
2022/04/15 02:11:45;;;;;;;12.60;6.15;;;16.70;49.30;;;;;;5072724;28;20235;-30
2022/04/15 02:14:12;;;;;;;7.57;5.38;;;16.70;49.90;;;;;;5073107;28;20175;-29
2022/04/15 02:16:39;;;;;;;11.18;5.88;;;16.70;49.10;;;;;;5072919;28;20243;-30
2022/04/15 02:19:05;;;;;;;6.97;5.38;;;16.80;48.90;;;;;;5072990;28;20676;-30
2022/04/15 02:21:31;;;;;;;11.25;6.82;;;16.70;49.00;;;;;;5072516;28;20259;-30
2022/04/15 02:23:57;;;;;;;9.50;6.00;;;16.70;48.80;;;;;;5072824;28;20287;-30
2022/04/15 02:26:23;;;;;;;9.57;6.70;;;16.70;48.60;;;;;;5072796;28;20403;-30
2022/04/15 02:28:49;;;;;;;10.10;4.83;;;16.70;48.90;;;;;;5072726;28;20664;-30
2022/04/15 02:31:14;;;;;;;8.70;4.47;;;16.70;48.70;;;;;;5072403;28;20211;-30
2022/04/15 02:33:40;;;;;;;9.67;6.07;;;16.70;48.60;;;;;;5072530;28;20439;-30
2022/04/15 02:36:06;;;;;;;9.43;5.40;;;16.70;48.70;;;;;;5071800;28;20164;-29
2022/04/15 02:38:32;;;;;;;8.35;5.32;;;16.60;48.70;;;;;;5072618;28;20431;-30
2022/04/15 02:40:59;;;;;;;10.10;5.57;;;16.60;48.70;;;;;;5072445;28;20195;-30
2022/04/15 02:43:31;;;;;;;11.45;5.57;;;16.60;48.60;;;;;;5072529;28;20200;-30
2022/04/15 02:45:58;;;;;;;9.45;5.65;;;16.60;48.90;;;;;;5072549;28;20169;-29
2022/04/15 02:48:25;;;;;;;8.60;5.75;;;16.50;49.10;;;;;;5072409;28;20172;-30
2022/04/15 02:50:51;;;;;;;8.82;4.43;;;16.50;48.80;;;;;;5072310;28;20742;-29
2022/04/15 02:53:17;;;;;;;9.93;6.43;;;16.50;49.10;;;;;;5072309;28;20325;-29
2022/04/15 02:55:42;;;;;;;9.30;5.10;;;16.50;49.40;;;;;;5072338;28;20263;-30
2022/04/15 02:58:08;;;;;;;8.53;5.70;;;16.40;48.80;;;;;;5072281;28;20780;-29
2022/04/15 03:00:34;;;;;;;14.83;5.50;;;16.40;49.00;;;;;;5072042;28;20179;-30
2022/04/15 03:03:00;;;;;;;8.40;6.03;;;16.40;49.10;;;;;;5072074;28;20291;-30
2022/04/15 03:05:25;;;;;;;11.53;5.83;;;16.30;48.90;;;;;;5072213;28;20171;-30
2022/04/15 03:07:51;;;;;;;9.70;6.40;;;16.30;48.80;;;;;;5072161;28;20191;-30
2022/04/15 03:10:17;;;;;;;6.13;5.33;;;16.30;48.60;;;;;;5072056;28;20192;-30
2022/04/15 03:12:42;;;;;;;9.00;4.97;;;16.20;48.90;;;;;;5071742;28;20200;-28
2022/04/15 03:15:09;;;;;;;13.37;6.50;;;16.20;48.80;;;;;;5072118;28;20182;-30
2022/04/15 03:17:35;;;;;;;9.05;6.00;;;16.10;48.90;;;;;;5072100;28;20289;-28
2022/04/15 03:20:06;;;;;;;8.57;6.15;;;16.10;48.80;;;;;;5072047;28;20260;-29
2022/04/15 03:22:41;;;;;;;13.07;6.90;;;16.00;48.80;;;;;;5071894;28;20196;-29
2022/04/15 03:25:09;;;;;;;11.95;6.97;;;16.00;48.60;;;;;;5072014;28;20673;-29
2022/04/15 03:27:35;;;;;;;10.88;7.38;;;16.00;48.50;;;;;;5072050;28;20164;-29
2022/04/15 03:30:01;;;;;;;11.00;5.40;;;16.00;48.40;;;;;;5071860;28;20569;-29
2022/04/15 03:32:27;;;;;;;14.17;5.57;;;15.90;48.50;;;;;;5071632;28;20193;-30
2022/04/15 03:34:53;;;;;;;12.23;5.57;;;15.90;48.70;;;;;;5071916;28;20204;-28
2022/04/15 03:37:19;;;;;;;9.13;5.35;;;15.80;48.70;;;;;;5071890;28;20182;-28
2022/04/15 03:39:45;;;;;;;12.23;6.80;;;15.80;48.60;;;;;;5071952;28;20172;-30
2022/04/15 03:42:10;;;;;;;12.73;6.47;;;16.20;49.00;;;;;;5071571;28;20205;-30
2022/04/15 03:44:37;;;;;;;17.20;6.80;;;15.80;48.70;;;;;;5071794;28;20756;-30
2022/04/15 03:47:06;;;;;;;13.68;5.97;;;15.80;48.70;;;;;;5072376;28;20617;-29
2022/04/15 03:49:32;;;;;;;17.10;7.13;;;15.80;48.40;;;;;;5075814;28;20176;-29
2022/04/15 03:51:58;;;;;;;9.63;5.82;;;15.80;48.60;;;;;;5075486;28;20196;-28
2022/04/15 03:54:24;;;;;;;11.63;6.90;;;15.90;48.50;;;;;;5075773;28;20161;-30
2022/04/15 03:56:50;;;;;;;8.30;6.80;;;15.80;48.40;;;;;;5075704;28;20635;-30
2022/04/15 03:59:16;;;;;;;13.43;7.83;;;15.80;48.60;;;;;;5075548;28;20165;-29
2022/04/15 04:01:42;;;;;;;11.50;6.63;;;15.80;48.60;;;;;;5075306;28;20274;-28
2022/04/15 04:04:08;;;;;;;10.93;6.55;;;15.80;48.60;;;;;;5075469;28;20446;-29
2022/04/15 04:06:34;;;;;;;14.25;7.97;;;15.80;48.90;;;;;;5075477;28;20668;-29
2022/04/15 04:08:59;;;;;;;10.87;6.73;;;15.80;49.00;;;;;;5075330;28;20243;-30
2022/04/15 04:11:25;;;;;;;11.30;6.90;;;15.80;49.40;;;;;;5074651;28;20173;-29
2022/04/15 04:13:51;;;;;;;12.30;7.03;;;15.80;49.00;;;;;;5075147;28;20577;-29
2022/04/15 04:16:18;;;;;;;10.67;6.30;;;15.80;49.10;;;;;;5075565;28;20177;-30
2022/04/15 04:18:44;;;;;;;12.52;6.45;;;15.80;49.00;;;;;;5075216;28;20554;-29
2022/04/15 04:21:11;;;;;;;14.55;7.43;;;15.90;49.30;;;;;;5074940;28;20181;-29
2022/04/15 04:23:38;;;;;;;12.38;6.60;;;15.90;49.20;;;;;;5075028;28;20200;-28
2022/04/15 04:26:04;;;;;;;9.90;7.22;;;15.90;49.20;;;;;;5075122;28;20188;-28
2022/04/15 04:28:33;;;;;;;11.75;6.35;;;15.90;49.30;;;;;;5075077;28;20176;-29
2022/04/15 04:30:59;;;;;;;8.82;6.25;;;16.00;49.20;;;;;;5074738;28;20176;-30
2022/04/15 04:33:24;;;;;;;13.97;6.93;;;16.00;49.00;;;;;;5074929;28;20193;-30
2022/04/15 04:35:51;;;;;;;13.47;6.50;;;16.00;49.10;;;;;;5074940;28;20821;-30
2022/04/15 04:38:17;;;;;;;13.48;7.18;;;16.00;49.30;;;;;;5074963;28;20247;-30
2022/04/15 04:40:43;;;;;;;15.60;8.17;;;16.10;49.60;;;;;;5074658;28;20306;-30
2022/04/15 04:43:10;;;;;;;13.88;8.52;;;16.00;49.50;;;;;;5074632;28;20465;-30
2022/04/15 04:45:36;;;;;;;13.10;8.50;;;16.10;50.20;;;;;;5074734;28;20173;-30
2022/04/15 04:48:03;;;;;;;25.30;11.30;;;16.10;50.00;;;;;;5074817;28;20222;-28
2022/04/15 04:50:30;;;;;;;20.00;10.10;;;16.10;50.10;;;;;;5074390;28;20181;-29
2022/04/15 04:52:56;;;;;;;12.27;8.68;;;16.20;50.20;;;;;;5074515;28;20188;-30
2022/04/15 04:55:22;;;;;;;15.43;8.60;;;16.20;50.60;;;;;;5074598;28;20172;-29
2022/04/15 04:57:48;;;;;;;14.53;8.00;;;16.20;50.60;;;;;;5074523;28;20179;-30
2022/04/15 05:00:16;;;;;;;14.97;8.20;;;16.20;50.70;;;;;;5073625;28;20244;-30
2022/04/15 05:02:44;;;;;;;10.07;7.07;;;16.20;51.00;;;;;;5074133;28;20456;-30
2022/04/15 05:05:10;;;;;;;11.18;7.75;;;16.20;51.20;;;;;;5074382;28;20173;-30
2022/04/15 05:07:36;;;;;;;12.27;8.07;;;16.10;51.40;;;;;;5074403;28;20165;-30
2022/04/15 05:10:03;;;;;;;14.57;8.47;;;16.20;51.30;;;;;;5074372;28;20222;-30
2022/04/15 05:12:29;;;;;;;15.38;8.93;;;16.10;52.50;;;;;;5073876;28;20439;-29
2022/04/15 05:14:55;;;;;;;16.00;9.47;;;16.00;52.70;;;;;;5074187;28;20173;-28
2022/04/15 05:17:20;;;;;;;16.07;8.47;;;16.10;51.80;;;;;;5074805;28;20168;-30
2022/04/15 05:19:46;;;;;;;17.43;7.83;;;16.10;51.40;;;;;;5075328;28;20530;-29
2022/04/15 05:22:12;;;;;;;16.50;9.70;;;16.10;51.70;;;;;;5074782;28;20204;-30
2022/04/15 05:24:38;;;;;;;16.00;10.63;;;16.10;51.70;;;;;;5074464;28;20260;-30
2022/04/15 05:27:07;;;;;;;16.05;9.48;;;16.10;51.20;;;;;;5073952;28;20186;-31
2022/04/15 05:29:34;;;;;;;16.90;10.20;;;16.10;51.70;;;;;;5073991;28;20171;-30
2022/04/15 05:32:00;;;;;;;14.52;7.68;;;16.00;51.50;;;;;;5069442;28;20200;-29
2022/04/15 05:34:25;;;;;;;17.17;8.68;;;16.10;51.50;;;;;;5065407;28;20311;-28
2022/04/15 05:36:51;;;;;;;16.00;9.33;;;16.10;51.30;;;;;;5073861;28;20682;-29
2022/04/15 05:39:17;;;;;;;14.03;8.50;;;16.00;50.80;;;;;;5073755;28;20218;-29
2022/04/15 05:41:42;;;;;;;9.47;6.57;;;16.10;51.00;;;;;;5073504;28;20658;-29
2022/04/15 05:44:08;;;;;;;11.13;6.77;;;16.10;50.50;;;;;;5073782;28;20275;-30
2022/04/15 05:46:37;;;;;;;12.70;7.63;;;16.00;49.60;;;;;;5073684;28;20222;-28
2022/04/15 05:49:05;;;;;;;9.13;6.05;;;15.90;49.70;;;;;;5073602;28;20565;-29
2022/04/15 05:51:30;;;;;;;9.80;6.07;;;15.90;49.20;;;;;;5073228;28;20674;-30
2022/04/15 05:53:56;;;;;;;11.00;5.83;;;15.90;48.90;;;;;;5073619;28;20172;-29
2022/04/15 05:56:22;;;;;;;17.47;5.83;;;15.80;48.90;;;;;;5073316;28;20165;-30
2022/04/15 05:58:47;;;;;;;8.53;5.90;;;15.80;48.80;;;;;;5073316;28;20321;-30
2022/04/15 06:01:13;;;;;;;9.20;5.90;;;15.70;48.50;;;;;;5067272;28;20180;-30
2022/04/15 06:03:38;;;;;;;8.97;6.00;;;15.70;48.40;;;;;;5061315;28;20235;-28
2022/04/15 06:06:05;;;;;;;11.90;6.00;;;15.60;48.40;;;;;;5053205;28;20170;-29
2022/04/15 06:08:31;;;;;;;9.45;6.47;;;15.60;48.50;;;;;;5053093;28;20169;-29
2022/04/15 06:10:58;;;;;;;10.73;5.93;;;15.70;48.50;;;;;;5052791;28;20215;-29
2022/04/15 06:13:25;;;;;;;12.63;6.82;;;15.60;48.70;;;;;;5052938;28;20205;-30
2022/04/15 06:15:53;;;;;;;10.25;7.00;;;15.60;48.50;;;;;;5053144;28;20174;-28
2022/04/15 06:18:20;;;;;;;10.32;6.35;;;15.60;48.50;;;;;;5052950;28;20173;-30
2022/04/15 06:20:47;;;;;;;15.68;7.18;;;15.60;48.50;;;;;;5051823;28;20187;-29
2022/04/15 06:23:14;;;;;;;9.38;5.80;;;15.50;48.70;;;;;;5060536;28;20266;-30
2022/04/15 06:25:40;;;;;;;12.18;6.85;;;15.50;48.90;;;;;;5052835;28;20225;-30
2022/04/15 06:28:06;;;;;;;10.63;5.35;;;15.50;48.80;;;;;;5052756;28;20168;-28
2022/04/15 06:30:32;;;;;;;8.90;5.33;;;15.50;48.70;;;;;;5052536;28;20577;-29
2022/04/15 06:32:58;;;;;;;8.37;4.40;;;15.50;48.70;;;;;;5052554;28;20997;-30
2022/04/15 06:35:23;;;;;;;4.90;3.67;;;15.40;47.80;;;;;;5052540;28;20494;-30
2022/04/15 06:37:49;;;;;;;9.43;5.50;;;15.30;47.80;;;;;;5052001;28;20191;-29
2022/04/15 06:40:15;;;;;;;5.10;4.13;;;15.30;47.80;;;;;;5059888;28;20181;-29
2022/04/15 06:42:41;;;;;;;8.63;3.90;;;15.30;47.90;;;;;;5065946;28;20595;-29
2022/04/15 06:45:07;;;;;;;6.00;3.50;;;15.20;47.30;;;;;;5072442;28;20164;-29
2022/04/15 06:47:33;;;;;;;6.55;4.32;;;15.20;47.60;;;;;;5072418;28;20161;-28
2022/04/15 06:49:58;;;;;;;4.90;3.67;;;15.20;47.70;;;;;;5072228;28;20173;-30
2022/04/15 06:52:24;;;;;;;6.40;3.53;;;15.30;47.40;;;;;;5072638;28;20184;-30
2022/04/15 06:54:50;;;;;;;7.50;4.50;;;15.30;47.20;;;;;;5072313;28;20656;-29
2022/04/15 06:57:15;;;;;;;4.47;2.77;;;15.30;47.10;;;;;;5072384;28;20177;-29
2022/04/15 06:59:41;;;;;;;6.27;3.77;;;15.30;46.90;;;;;;5072269;28;20895;-29
2022/04/15 07:02:07;;;;;;;4.93;2.93;;;15.30;46.80;;;;;;5071902;28;20279;-30
2022/04/15 07:04:34;;;;;;;3.53;3.20;;;15.30;46.50;;;;;;5072168;28;20523;-30
2022/04/15 07:07:00;;;;;;;5.00;2.72;;;15.30;46.50;;;;;;5072146;28;20399;-30
2022/04/15 07:09:27;;;;;;;5.57;3.75;;;15.30;46.60;;;;;;5072068;28;20250;-30
2022/04/15 07:11:53;;;;;;;5.22;3.22;;;15.20;46.20;;;;;;5071653;28;20597;-30
2022/04/15 07:14:19;;;;;;;4.10;3.13;;;15.20;45.70;;;;;;5072091;28;20168;-30
2022/04/15 07:16:45;;;;;;;4.25;3.15;;;15.20;46.20;;;;;;5072036;28;20263;-30
2022/04/15 07:19:11;;;;;;;3.87;3.47;;;15.20;46.00;;;;;;5071965;28;20211;-30
2022/04/15 07:21:38;;;;;;;5.05;3.67;;;15.20;46.00;;;;;;5071212;28;20242;-29
2022/04/15 07:24:05;;;;;;;4.63;3.22;;;15.20;45.80;;;;;;5071905;28;20243;-28
2022/04/15 07:26:31;;;;;;;3.00;2.08;;;15.20;46.10;;;;;;5072308;28;20195;-30
2022/04/15 07:28:57;;;;;;;5.38;3.30;;;15.20;46.00;;;;;;5071914;28;20772;-28
2022/04/15 07:31:24;;;;;;;4.75;2.92;;;15.20;44.30;;;;;;5071615;28;20534;-30
2022/04/15 07:33:51;;;;;;;3.40;1.90;;;15.10;45.60;;;;;;5071940;28;20256;-29
2022/04/15 07:39:05;;;;;;;3.00;2.15;;;15.00;44.70;;;;;;5071821;28;20180;-30
2022/04/15 07:41:30;;;;;;;3.67;2.53;;;14.90;44.80;;;;;;5071547;28;20168;-29
2022/04/15 07:43:56;;;;;;;5.23;3.23;;;14.90;44.70;;;;;;5071757;28;20207;-29
2022/04/15 07:46:22;;;;;;;3.27;2.57;;;14.80;44.60;;;;;;5071737;28;20418;-30
2022/04/15 07:48:48;;;;;;;2.30;1.60;;;14.80;44.60;;;;;;5071625;28;20409;-30
2022/04/15 07:51:13;;;;;;;3.90;1.83;;;14.70;44.30;;;;;;5071485;28;20522;-30
2022/04/15 07:53:39;;;;;;;4.00;3.07;;;14.70;44.20;;;;;;5071743;28;20227;-28
2022/04/15 07:56:05;;;;;;;5.63;2.60;;;14.60;44.40;;;;;;5071714;28;20168;-30
2022/04/15 07:58:31;;;;;;;2.90;2.20;;;14.70;44.70;;;;;;5070898;28;20168;-29
2022/04/15 08:01:00;;;;;;;3.97;2.38;;;14.70;44.70;;;;;;5061117;28;20431;-28
2022/04/15 08:03:27;;;;;;;3.65;2.63;;;14.70;44.50;;;;;;5031519;28;20684;-30
2022/04/15 08:05:54;;;;;;;3.00;2.33;;;14.60;44.30;;;;;;5031750;28;20540;-28
2022/04/15 08:08:20;;;;;;;2.80;1.90;;;14.70;44.00;;;;;;5031614;28;20170;-28
2022/04/15 08:10:47;;;;;;;4.00;2.20;;;14.70;44.30;;;;;;5031370;28;20170;-29
2022/04/15 08:13:12;;;;;;;2.78;1.45;;;14.70;44.70;;;;;;5031331;28;20206;-30
2022/04/15 08:15:38;;;;;;;2.63;1.97;;;14.70;44.50;;;;;;5031433;28;20704;-30
2022/04/15 08:18:04;;;;;;;3.33;1.77;;;14.80;44.30;;;;;;5031612;28;20253;-28
2022/04/15 08:20:30;;;;;;;2.80;1.77;;;14.90;44.50;;;;;;5031303;28;20644;-28
2022/04/15 08:22:55;;;;;;;2.73;2.00;;;14.90;44.10;;;;;;5031260;28;20459;-29
2022/04/15 08:25:21;;;;;;;4.40;2.20;;;15.00;43.70;;;;;;5031442;28;20166;-30
2022/04/15 08:27:47;;;;;;;4.90;2.07;;;15.00;43.60;;;;;;5031412;28;20204;-29
2022/04/15 08:30:12;;;;;;;4.03;2.40;;;15.00;43.90;;;;;;5031265;28;20280;-29
2022/04/15 08:32:38;;;;;;;3.43;2.70;;;15.00;44.10;;;;;;5031119;28;20217;-29
2022/04/15 08:35:06;;;;;;;4.97;3.43;;;15.10;43.90;;;;;;5033412;28;20228;-29
2022/04/15 08:37:33;;;;;;;2.88;2.03;;;15.00;43.60;;;;;;5034929;28;20651;-28
2022/04/15 08:39:59;;;;;;;3.90;2.30;;;15.00;43.50;;;;;;5034965;28;20170;-28
2022/04/15 08:42:25;;;;;;;2.88;1.90;;;15.00;43.70;;;;;;5034953;28;20209;-30
2022/04/15 08:44:52;;;;;;;4.43;2.53;;;15.00;43.80;;;;;;5034752;28;20651;-30
2022/04/15 08:47:19;;;;;;;7.57;3.45;;;14.90;43.10;;;;;;5034885;28;20191;-29
2022/04/15 08:49:46;;;;;;;3.65;2.92;;;14.80;43.10;;;;;;5034709;28;20170;-28
2022/04/15 08:52:15;;;;;;;3.90;2.15;;;14.80;43.00;;;;;;5039118;28;20201;-32
2022/04/15 08:54:41;;;;;;;2.85;2.20;;;14.80;43.30;;;;;;5066105;28;20165;-31
2022/04/15 08:57:07;;;;;;;4.23;2.33;;;14.80;43.20;;;;;;5074464;28;20167;-31
2022/04/15 08:59:53;;;;;;;4.07;1.95;;;14.80;43.00;;;;;;5074456;28;20527;-31
2022/04/15 09:02:32;;;;;;;4.10;2.05;;;14.90;43.00;;;;;;5073802;28;20204;-32
2022/04/15 09:04:59;;;;;;;2.80;1.90;;;14.80;42.60;;;;;;5074373;28;20161;-32
2022/04/15 09:07:29;;;;;;;7.63;2.45;;;14.80;43.00;;;;;;5067302;28;20192;-30
2022/04/15 09:09:57;;;;;;;2.78;1.80;;;14.80;42.70;;;;;;5063052;28;20196;-31
2022/04/15 09:12:26;;;;;;;2.92;2.17;;;14.80;42.90;;;;;;5054842;28;20318;-31
2022/04/15 09:15:09;;;;;;;3.03;2.00;;;14.90;43.10;;;;;;5054925;28;20169;-32
2022/04/15 09:17:36;;;;;;;6.13;2.75;;;14.90;42.70;;;;;;5054480;28;20158;-31
2022/04/15 09:20:04;;;;;;;2.40;1.65;;;14.90;42.50;;;;;;5053948;28;20527;-31
2022/04/15 09:22:30;;;;;;;3.72;2.15;;;14.90;41.90;;;;;;5053760;28;20213;-31
2022/04/15 09:24:56;;;;;;;2.87;1.77;;;14.90;41.80;;;;;;5053943;28;20631;-32
2022/04/15 09:27:25;;;;;;;2.73;2.00;;;14.90;41.50;;;;;;5054070;28;20166;-32
2022/04/15 09:29:54;;;;;;;1.88;1.45;;;14.80;41.80;;;;;;5054055;28;20435;-31
2022/04/15 09:32:20;;;;;;;2.30;1.60;;;14.80;41.70;;;;;;5053593;28;20674;-31
2022/04/15 09:35:18;;;;;;;2.15;1.88;;;14.80;41.70;;;;;;5053707;28;20806;-29
2022/04/15 09:37:44;;;;;;;3.08;1.33;;;14.80;41.70;;;;;;5020148;28;20173;-29
2022/04/15 09:40:14;;;;;;;2.83;1.80;;;14.80;41.80;;;;;;5053712;28;20221;-29
2022/04/15 09:42:54;;;;;;;2.42;1.10;;;14.90;41.60;;;;;;5053699;28;20197;-28
2022/04/15 09:45:30;;;;;;;3.05;1.80;;;14.90;41.10;;;;;;5053429;28;20181;-28
2022/04/15 09:47:58;;;;;;;2.50;1.52;;;14.90;40.60;;;;;;5053672;28;20229;-28
2022/04/15 09:50:26;;;;;;;2.70;1.38;;;14.90;41.00;;;;;;5053257;28;20189;-29
2022/04/15 09:52:53;;;;;;;2.10;1.50;;;14.90;41.00;;;;;;5053429;28;20669;-29
2022/04/15 09:55:20;;;;;;;5.10;2.25;;;15.00;40.90;;;;;;5053538;28;20180;-29
2022/04/15 09:57:50;;;;;;;4.80;2.25;;;15.00;41.30;;;;;;5053430;28;20201;-28
2022/04/15 10:00:18;;;;;;;3.45;1.50;;;15.10;41.20;;;;;;5053198;28;20637;-29
2022/04/15 10:02:44;;;;;;;2.80;2.00;;;15.10;41.00;;;;;;5053057;28;20201;-29
2022/04/15 10:05:12;;;;;;;5.28;2.88;;;15.20;41.00;;;;;;5051715;28;20231;-28
2022/04/15 10:07:40;;;;;;;3.90;3.33;;;15.10;40.90;;;;;;5060667;28;20181;-29
2022/04/15 10:10:08;;;;;;;3.05;1.30;;;15.10;41.10;;;;;;5061984;28;20230;-30
2022/04/15 10:12:39;;;;;;;2.00;1.23;;;15.20;40.20;;;;;;5072636;28;20204;-28
2022/04/15 10:15:09;;;;;;;2.55;1.50;;;15.10;41.50;;;;;;5073061;28;20156;-28
2022/04/15 10:17:41;;;;;;;2.47;1.38;;;15.10;40.70;;;;;;5072939;28;20253;-30
2022/04/15 10:20:08;;;;;;;2.53;1.63;;;15.10;40.80;;;;;;5072779;28;20550;-28
2022/04/15 10:22:37;;;;;;;3.30;1.88;;;15.00;40.00;;;;;;5072723;28;20235;-29
2022/04/15 10:25:05;;;;;;;2.00;1.40;;;15.00;40.70;;;;;;5072846;28;20164;-28
2022/04/15 10:27:32;;;;;;;2.60;1.70;;;15.00;40.30;;;;;;5072830;28;20248;-29
2022/04/15 10:30:04;;;;;;;1.75;1.10;;;14.90;40.30;;;;;;5070799;28;20196;-29
2022/04/15 10:32:43;;;;;;;2.55;1.52;;;14.90;40.50;;;;;;5060708;28;20193;-30
2022/04/15 10:35:20;;;;;;;2.47;1.48;;;14.90;40.60;;;;;;5052644;28;20215;-29
2022/04/15 10:37:47;;;;;;;2.85;2.30;;;14.90;40.40;;;;;;5052957;28;20167;-30
2022/04/15 10:40:43;;;;;;;2.55;1.83;;;14.90;41.30;;;;;;5052624;28;20263;-32
2022/04/15 10:43:25;;;;;;;1.80;1.25;;;15.00;40.70;;;;;;5025096;28;20209;-30
2022/04/15 10:46:13;;;;;;;1.75;1.20;;;15.00;40.50;;;;;;5052453;28;20232;-32
2022/04/15 10:48:41;;;;;;;2.50;1.67;;;14.90;40.10;;;;;;5052649;28;20184;-30
2022/04/15 10:51:45;;;;;;;10.15;1.85;;;14.90;39.90;;;;;;5052312;28;20234;-30
2022/04/15 10:54:35;;;;;;;3.55;1.90;;;14.80;39.90;;;;;;4990712;28;20179;-30
2022/04/15 10:57:15;;;;;;;5.45;3.75;;;14.70;40.20;;;;;;4990019;28;20183;-30
2022/04/15 11:02:44;;;;;;;3.40;2.40;;;14.80;40.50;;;;;;4990347;28;20210;-31
2022/04/15 11:05:30;;;;;;;3.58;1.40;;;14.70;40.60;;;;;;4990575;28;20230;-31
2022/04/15 11:08:05;;;;;;;2.00;1.40;;;14.80;40.20;;;;;;4990595;28;20341;-31
2022/04/15 11:10:42;;;;;;;2.30;1.25;;;14.80;40.30;;;;;;4990183;28;20174;-30
2022/04/15 11:13:08;;;;;;;2.63;1.65;;;14.80;40.00;;;;;;4990285;28;20214;-31
2022/04/15 11:15:58;;;;;;;3.05;1.83;;;14.80;40.30;;;;;;4990663;28;20179;-32
2022/04/15 11:18:42;;;;;;;2.70;1.65;;;14.80;40.10;;;;;;4990343;28;20183;-31
2022/04/15 11:21:08;;;;;;;2.67;1.33;;;14.90;41.50;;;;;;4990248;28;20171;-32
2022/04/15 11:23:33;;;;;;;2.40;1.40;;;14.90;40.00;;;;;;4973837;28;20546;-32
2022/04/15 11:26:00;;;;;;;2.20;1.90;;;14.80;39.50;;;;;;5047845;28;20449;-32
2022/04/15 11:28:27;;;;;;;11.70;9.55;;;14.80;40.00;;;;;;5051878;28;20188;-31
2022/04/15 11:30:53;;;;;;;9.63;7.22;;;14.90;40.00;;;;;;5050205;28;20268;-32
2022/04/15 11:33:19;;;;;;;2.97;2.10;;;14.90;39.80;;;;;;5051563;28;20275;-32
2022/04/15 11:35:46;;;;;;;3.80;2.47;;;15.00;40.10;;;;;;5051645;28;20865;-32
2022/04/15 11:38:12;;;;;;;3.25;2.65;;;15.10;39.80;;;;;;5051837;28;20264;-31
2022/04/15 11:40:43;;;;;;;3.50;3.15;;;15.10;40.00;;;;;;5051528;28;20276;-31
2022/04/15 11:43:10;;;;;;;2.30;1.80;;;15.20;40.40;;;;;;5051709;28;20262;-32
2022/04/15 11:45:38;;;;;;;2.58;1.25;;;15.20;40.40;;;;;;5051720;28;20169;-32
2022/04/15 11:48:14;;;;;;;3.13;1.92;;;15.20;39.60;;;;;;5051639;28;20169;-32
2022/04/15 11:50:40;;;;;;;2.30;1.60;;;15.20;39.40;;;;;;5051430;28;20165;-32
2022/04/15 11:53:06;;;;;;;4.80;3.20;;;15.30;39.50;;;;;;5051569;28;20196;-32
2022/04/15 11:55:33;;;;;;;3.40;2.20;;;15.40;39.50;;;;;;5051555;28;20216;-32
2022/04/15 11:58:00;;;;;;;2.55;1.80;;;15.60;39.20;;;;;;5051609;28;20881;-32
2022/04/15 12:00:26;;;;;;;3.22;1.80;;;15.70;39.40;;;;;;5051352;28;20255;-31
2022/04/15 12:03:01;;;;;;;2.35;1.65;;;15.90;39.20;;;;;;5051313;28;20263;-32
2022/04/15 12:05:27;;;;;;;4.38;1.80;;;15.90;39.10;;;;;;5051258;28;20173;-32
2022/04/15 12:07:53;;;;;;;2.10;1.40;;;16.00;39.00;;;;;;5058911;28;20176;-32
2022/04/15 12:10:21;;;;;;;2.88;1.75;;;16.00;38.70;;;;;;5056165;28;20562;-31
2022/04/15 12:12:49;;;;;;;2.08;1.52;;;16.00;38.80;;;;;;5055093;28;20258;-32
2022/04/15 12:15:14;;;;;;;3.05;1.75;;;16.10;39.30;;;;;;5056089;28;20169;-33
2022/04/15 12:17:41;;;;;;;2.43;1.90;;;16.10;38.40;;;;;;5055276;28;20174;-32
2022/04/15 12:20:08;;;;;;;3.08;1.50;;;16.00;38.10;;;;;;5055152;28;20180;-31
2022/04/15 12:22:36;;;;;;;2.38;1.05;;;15.90;38.30;;;;;;5054878;28;20204;-32
2022/04/15 12:25:18;;;;;;;2.63;1.85;;;15.80;38.30;;;;;;5055114;28;20635;-30
2022/04/15 12:27:46;;;;;;;1.92;1.35;;;15.70;38.40;;;;;;5055068;28;20237;-31
2022/04/15 12:30:14;;;;;;;3.25;1.80;;;15.60;38.60;;;;;;5055002;28;20170;-30
2022/04/15 12:32:40;;;;;;;2.22;1.75;;;15.50;39.20;;;;;;5054711;28;20688;-31
2022/04/15 12:35:11;;;;;;;2.43;1.40;;;15.50;39.50;;;;;;5055167;28;20181;-31
2022/04/15 12:38:05;;;;;;;3.50;2.10;;;15.30;39.50;;;;;;5063106;28;20459;-31
2022/04/15 12:40:32;;;;;;;3.47;1.88;;;15.20;39.80;;;;;;5032636;28;20184;-32
2022/04/15 12:43:11;;;;;;;2.20;1.58;;;15.10;39.90;;;;;;5034695;28;20194;-31
2022/04/15 12:45:48;;;;;;;2.97;2.15;;;15.00;40.40;;;;;;5034845;28;20174;-31
2022/04/15 12:48:14;;;;;;;3.08;1.90;;;15.00;40.60;;;;;;5035015;28;20169;-31
2022/04/15 12:50:41;;;;;;;2.33;1.43;;;15.10;40.40;;;;;;5062712;28;20170;-31
2022/04/15 12:53:17;;;;;;;3.35;2.53;;;15.10;40.30;;;;;;5071916;28;20228;-30